sensor_id;sensor_type;location;lat;lon;timestamp;P1;durP1;ratioP1;P2;durP2;ratioP2
21979;SDS011;11154;48.558;9.234;2024-01-15T00:01:15;17.48;;;10.60;;
21979;SDS011;11154;48.558;9.234;2024-01-15T00:03:16;16.60;;;11.00;;
21979;SDS011;11154;48.558;9.234;2024-01-15T00:05:20;19.10;;;11.75;;
21979;SDS011;11154;48.558;9.234;2024-01-15T00:07:21;19.73;;;11.60;;
21979;SDS011;11154;48.558;9.234;2024-01-15T00:09:23;17.83;;;11.07;;
21979;SDS011;11154;48.558;9.234;2024-01-15T00:11:24;19.08;;;10.88;;
21979;SDS011;11154;48.558;9.234;2024-01-15T00:13:26;17.92;;;10.95;;
21979;SDS011;11154;48.558;9.234;2024-01-15T00:15:31;17.48;;;11.05;;
21979;SDS011;11154;48.558;9.234;2024-01-15T00:17:32;16.85;;;10.65;;
21979;SDS011;11154;48.558;9.234;2024-01-15T00:19:33;16.25;;;10.48;;
21979;SDS011;11154;48.558;9.234;2024-01-15T00:21:36;15.02;;;10.07;;
21979;SDS011;11154;48.558;9.234;2024-01-15T00:23:39;17.40;;;10.60;;
21979;SDS011;11154;48.558;9.234;2024-01-15T00:25:43;16.20;;;10.07;;
21979;SDS011;11154;48.558;9.234;2024-01-15T00:27:45;16.35;;;10.45;;
21979;SDS011;11154;48.558;9.234;2024-01-15T00:29:49;17.08;;;10.73;;
21979;SDS011;11154;48.558;9.234;2024-01-15T00:31:52;18.50;;;10.57;;
21979;SDS011;11154;48.558;9.234;2024-01-15T00:33:53;16.50;;;10.35;;
21979;SDS011;11154;48.558;9.234;2024-01-15T00:35:55;16.95;;;10.95;;
21979;SDS011;11154;48.558;9.234;2024-01-15T00:37:58;15.80;;;9.82;;
21979;SDS011;11154;48.558;9.234;2024-01-15T00:40:00;17.80;;;10.95;;
21979;SDS011;11154;48.558;9.234;2024-01-15T00:42:01;15.65;;;10.05;;
21979;SDS011;11154;48.558;9.234;2024-01-15T00:44:03;17.38;;;10.35;;
21979;SDS011;11154;48.558;9.234;2024-01-15T00:46:05;14.07;;;9.10;;
21979;SDS011;11154;48.558;9.234;2024-01-15T00:48:07;15.85;;;9.80;;
21979;SDS011;11154;48.558;9.234;2024-01-15T00:50:09;16.63;;;10.40;;
21979;SDS011;11154;48.558;9.234;2024-01-15T00:52:11;17.15;;;9.82;;
21979;SDS011;11154;48.558;9.234;2024-01-15T00:54:14;18.17;;;10.93;;
21979;SDS011;11154;48.558;9.234;2024-01-15T00:56:17;16.38;;;10.40;;
21979;SDS011;11154;48.558;9.234;2024-01-15T00:58:19;16.27;;;10.57;;
21979;SDS011;11154;48.558;9.234;2024-01-15T01:00:21;18.13;;;9.95;;
21979;SDS011;11154;48.558;9.234;2024-01-15T01:02:23;16.83;;;10.43;;
21979;SDS011;11154;48.558;9.234;2024-01-15T01:04:23;17.33;;;10.82;;
21979;SDS011;11154;48.558;9.234;2024-01-15T01:06:25;16.63;;;10.63;;
21979;SDS011;11154;48.558;9.234;2024-01-15T01:08:27;15.50;;;10.60;;
21979;SDS011;11154;48.558;9.234;2024-01-15T01:10:34;17.48;;;10.35;;
21979;SDS011;11154;48.558;9.234;2024-01-15T01:12:35;16.20;;;10.38;;
21979;SDS011;11154;48.558;9.234;2024-01-15T01:14:36;18.98;;;10.45;;
21979;SDS011;11154;48.558;9.234;2024-01-15T01:16:38;16.50;;;10.32;;
21979;SDS011;11154;48.558;9.234;2024-01-15T01:18:41;17.45;;;10.73;;
21979;SDS011;11154;48.558;9.234;2024-01-15T01:20:43;16.20;;;10.30;;
21979;SDS011;11154;48.558;9.234;2024-01-15T01:22:44;17.60;;;10.73;;
21979;SDS011;11154;48.558;9.234;2024-01-15T01:24:46;17.45;;;10.30;;
21979;SDS011;11154;48.558;9.234;2024-01-15T01:26:48;15.63;;;9.95;;
21979;SDS011;11154;48.558;9.234;2024-01-15T01:28:50;17.90;;;10.30;;
21979;SDS011;11154;48.558;9.234;2024-01-15T01:30:51;15.38;;;10.30;;
21979;SDS011;11154;48.558;9.234;2024-01-15T01:32:53;16.05;;;10.10;;
21979;SDS011;11154;48.558;9.234;2024-01-15T01:34:55;15.60;;;9.65;;
21979;SDS011;11154;48.558;9.234;2024-01-15T01:36:56;16.38;;;10.40;;
21979;SDS011;11154;48.558;9.234;2024-01-15T01:38:58;16.75;;;10.05;;
21979;SDS011;11154;48.558;9.234;2024-01-15T01:41:00;16.63;;;10.20;;
21979;SDS011;11154;48.558;9.234;2024-01-15T01:43:04;14.80;;;9.70;;
21979;SDS011;11154;48.558;9.234;2024-01-15T01:45:06;14.07;;;9.70;;
21979;SDS011;11154;48.558;9.234;2024-01-15T01:47:07;14.57;;;9.63;;
21979;SDS011;11154;48.558;9.234;2024-01-15T01:49:10;15.65;;;10.18;;
21979;SDS011;11154;48.558;9.234;2024-01-15T01:51:11;15.13;;;9.77;;
21979;SDS011;11154;48.558;9.234;2024-01-15T01:53:13;16.63;;;9.73;;
21979;SDS011;11154;48.558;9.234;2024-01-15T01:55:15;15.82;;;9.73;;
21979;SDS011;11154;48.558;9.234;2024-01-15T01:57:18;14.25;;;9.30;;
21979;SDS011;11154;48.558;9.234;2024-01-15T01:59:22;14.05;;;9.65;;
21979;SDS011;11154;48.558;9.234;2024-01-15T02:01:25;16.42;;;10.18;;
21979;SDS011;11154;48.558;9.234;2024-01-15T02:03:27;15.13;;;9.07;;
21979;SDS011;11154;48.558;9.234;2024-01-15T02:05:28;14.38;;;9.77;;
21979;SDS011;11154;48.558;9.234;2024-01-15T02:07:34;14.70;;;9.13;;
21979;SDS011;11154;48.558;9.234;2024-01-15T02:09:36;15.48;;;9.85;;
21979;SDS011;11154;48.558;9.234;2024-01-15T02:11:38;14.55;;;9.65;;
21979;SDS011;11154;48.558;9.234;2024-01-15T02:13:39;15.48;;;9.60;;
21979;SDS011;11154;48.558;9.234;2024-01-15T02:15:42;15.40;;;10.15;;
21979;SDS011;11154;48.558;9.234;2024-01-15T02:17:57;17.40;;;9.88;;
21979;SDS011;11154;48.558;9.234;2024-01-15T02:19:58;14.10;;;9.70;;
21979;SDS011;11154;48.558;9.234;2024-01-15T02:22:00;15.45;;;9.57;;
21979;SDS011;11154;48.558;9.234;2024-01-15T02:24:04;17.23;;;10.65;;
21979;SDS011;11154;48.558;9.234;2024-01-15T02:26:05;14.68;;;9.55;;
21979;SDS011;11154;48.558;9.234;2024-01-15T02:28:09;15.88;;;10.27;;
21979;SDS011;11154;48.558;9.234;2024-01-15T02:30:12;15.25;;;9.27;;
21979;SDS011;11154;48.558;9.234;2024-01-15T02:32:14;15.60;;;9.90;;
21979;SDS011;11154;48.558;9.234;2024-01-15T02:34:15;14.23;;;9.35;;
21979;SDS011;11154;48.558;9.234;2024-01-15T02:36:17;15.68;;;9.27;;
21979;SDS011;11154;48.558;9.234;2024-01-15T02:38:19;18.05;;;10.18;;
21979;SDS011;11154;48.558;9.234;2024-01-15T02:40:21;15.32;;;9.32;;
21979;SDS011;11154;48.558;9.234;2024-01-15T02:42:22;15.23;;;9.60;;
21979;SDS011;11154;48.558;9.234;2024-01-15T02:44:24;17.38;;;10.35;;
21979;SDS011;11154;48.558;9.234;2024-01-15T02:46:26;14.18;;;9.07;;
21979;SDS011;11154;48.558;9.234;2024-01-15T02:48:26;15.88;;;9.70;;
21979;SDS011;11154;48.558;9.234;2024-01-15T02:50:28;15.60;;;9.60;;
21979;SDS011;11154;48.558;9.234;2024-01-15T02:52:29;11.60;;;8.25;;
21979;SDS011;11154;48.558;9.234;2024-01-15T02:54:30;15.40;;;9.45;;
21979;SDS011;11154;48.558;9.234;2024-01-15T02:56:33;13.82;;;8.90;;
21979;SDS011;11154;48.558;9.234;2024-01-15T02:58:35;13.88;;;8.68;;
21979;SDS011;11154;48.558;9.234;2024-01-15T03:00:36;16.10;;;9.27;;
21979;SDS011;11154;48.558;9.234;2024-01-15T03:02:38;13.75;;;8.60;;
21979;SDS011;11154;48.558;9.234;2024-01-15T03:04:42;19.02;;;9.15;;
21979;SDS011;11154;48.558;9.234;2024-01-15T03:06:44;14.30;;;9.50;;
21979;SDS011;11154;48.558;9.234;2024-01-15T03:08:45;14.52;;;9.07;;
21979;SDS011;11154;48.558;9.234;2024-01-15T03:10:46;12.05;;;8.75;;
21979;SDS011;11154;48.558;9.234;2024-01-15T03:12:48;15.95;;;9.23;;
21979;SDS011;11154;48.558;9.234;2024-01-15T03:14:50;14.43;;;8.98;;
21979;SDS011;11154;48.558;9.234;2024-01-15T03:16:54;13.38;;;8.57;;
21979;SDS011;11154;48.558;9.234;2024-01-15T03:18:56;15.90;;;8.73;;
21979;SDS011;11154;48.558;9.234;2024-01-15T03:20:58;13.80;;;9.00;;
21979;SDS011;11154;48.558;9.234;2024-01-15T03:23:01;13.63;;;8.43;;
21979;SDS011;11154;48.558;9.234;2024-01-15T03:25:03;14.63;;;8.07;;
21979;SDS011;11154;48.558;9.234;2024-01-15T03:27:04;13.80;;;8.80;;
21979;SDS011;11154;48.558;9.234;2024-01-15T03:29:07;13.30;;;8.25;;
21979;SDS011;11154;48.558;9.234;2024-01-15T03:31:09;15.48;;;9.57;;
21979;SDS011;11154;48.558;9.234;2024-01-15T03:33:10;14.77;;;9.45;;
21979;SDS011;11154;48.558;9.234;2024-01-15T03:35:12;16.42;;;9.23;;
21979;SDS011;11154;48.558;9.234;2024-01-15T03:37:14;14.15;;;8.32;;
21979;SDS011;11154;48.558;9.234;2024-01-15T03:39:15;13.93;;;8.52;;
21979;SDS011;11154;48.558;9.234;2024-01-15T03:41:16;14.60;;;8.85;;
21979;SDS011;11154;48.558;9.234;2024-01-15T03:43:18;12.95;;;8.00;;
21979;SDS011;11154;48.558;9.234;2024-01-15T03:45:21;12.98;;;8.23;;
21979;SDS011;11154;48.558;9.234;2024-01-15T03:47:22;14.60;;;8.07;;
21979;SDS011;11154;48.558;9.234;2024-01-15T03:49:24;11.80;;;7.68;;
21979;SDS011;11154;48.558;9.234;2024-01-15T03:51:24;14.60;;;8.38;;
21979;SDS011;11154;48.558;9.234;2024-01-15T03:53:26;15.27;;;8.73;;
21979;SDS011;11154;48.558;9.234;2024-01-15T03:55:28;12.52;;;8.30;;
21979;SDS011;11154;48.558;9.234;2024-01-15T03:57:29;14.32;;;8.00;;
21979;SDS011;11154;48.558;9.234;2024-01-15T03:59:31;12.75;;;7.88;;
21979;SDS011;11154;48.558;9.234;2024-01-15T04:01:34;15.88;;;9.40;;
21979;SDS011;11154;48.558;9.234;2024-01-15T04:03:36;14.27;;;8.73;;
21979;SDS011;11154;48.558;9.234;2024-01-15T04:05:38;15.07;;;8.93;;
21979;SDS011;11154;48.558;9.234;2024-01-15T04:07:39;14.60;;;8.95;;
21979;SDS011;11154;48.558;9.234;2024-01-15T04:09:41;13.95;;;8.77;;
21979;SDS011;11154;48.558;9.234;2024-01-15T04:11:45;15.18;;;9.68;;
21979;SDS011;11154;48.558;9.234;2024-01-15T04:13:46;13.95;;;8.75;;
21979;SDS011;11154;48.558;9.234;2024-01-15T04:15:48;13.35;;;8.65;;
21979;SDS011;11154;48.558;9.234;2024-01-15T04:17:51;15.45;;;9.82;;
21979;SDS011;11154;48.558;9.234;2024-01-15T04:19:53;11.63;;;7.78;;
21979;SDS011;11154;48.558;9.234;2024-01-15T04:21:55;15.82;;;9.10;;
21979;SDS011;11154;48.558;9.234;2024-01-15T04:23:59;15.63;;;9.30;;
21979;SDS011;11154;48.558;9.234;2024-01-15T04:26:00;16.63;;;9.75;;
21979;SDS011;11154;48.558;9.234;2024-01-15T04:28:04;16.45;;;10.00;;
21979;SDS011;11154;48.558;9.234;2024-01-15T04:30:07;16.30;;;10.05;;
21979;SDS011;11154;48.558;9.234;2024-01-15T04:32:09;15.35;;;9.77;;
21979;SDS011;11154;48.558;9.234;2024-01-15T04:34:11;15.98;;;9.05;;
21979;SDS011;11154;48.558;9.234;2024-01-15T04:36:12;14.25;;;9.68;;
21979;SDS011;11154;48.558;9.234;2024-01-15T04:38:14;16.20;;;9.98;;
21979;SDS011;11154;48.558;9.234;2024-01-15T04:40:16;13.55;;;8.68;;
21979;SDS011;11154;48.558;9.234;2024-01-15T04:42:16;14.13;;;8.80;;
21979;SDS011;11154;48.558;9.234;2024-01-15T04:44:18;16.35;;;9.65;;
21979;SDS011;11154;48.558;9.234;2024-01-15T04:46:20;15.40;;;9.27;;
21979;SDS011;11154;48.558;9.234;2024-01-15T04:48:22;15.13;;;9.40;;
21979;SDS011;11154;48.558;9.234;2024-01-15T04:50:25;17.73;;;10.07;;
21979;SDS011;11154;48.558;9.234;2024-01-15T04:52:27;15.68;;;9.60;;
21979;SDS011;11154;48.558;9.234;2024-01-15T04:54:28;15.52;;;9.38;;
21979;SDS011;11154;48.558;9.234;2024-01-15T04:56:30;14.80;;;9.40;;
21979;SDS011;11154;48.558;9.234;2024-01-15T04:58:31;14.90;;;9.82;;
21979;SDS011;11154;48.558;9.234;2024-01-15T05:00:32;15.02;;;9.70;;
21979;SDS011;11154;48.558;9.234;2024-01-15T05:02:34;15.38;;;8.98;;
21979;SDS011;11154;48.558;9.234;2024-01-15T05:04:36;13.63;;;8.60;;
21979;SDS011;11154;48.558;9.234;2024-01-15T05:06:39;17.80;;;11.05;;
21979;SDS011;11154;48.558;9.234;2024-01-15T05:08:40;16.80;;;10.70;;
21979;SDS011;11154;48.558;9.234;2024-01-15T05:10:42;14.07;;;9.15;;
21979;SDS011;11154;48.558;9.234;2024-01-15T05:12:43;16.00;;;10.20;;
21979;SDS011;11154;48.558;9.234;2024-01-15T05:14:44;16.35;;;9.50;;
21979;SDS011;11154;48.558;9.234;2024-01-15T05:16:46;15.25;;;9.30;;
21979;SDS011;11154;48.558;9.234;2024-01-15T05:18:49;15.30;;;9.90;;
21979;SDS011;11154;48.558;9.234;2024-01-15T05:20:50;15.98;;;10.18;;
21979;SDS011;11154;48.558;9.234;2024-01-15T05:22:53;13.55;;;8.70;;
21979;SDS011;11154;48.558;9.234;2024-01-15T05:24:54;15.98;;;9.82;;
21979;SDS011;11154;48.558;9.234;2024-01-15T05:26:56;15.10;;;9.23;;
21979;SDS011;11154;48.558;9.234;2024-01-15T05:28:57;14.07;;;8.90;;
21979;SDS011;11154;48.558;9.234;2024-01-15T05:30:59;14.90;;;8.70;;
21979;SDS011;11154;48.558;9.234;2024-01-15T05:33:01;13.48;;;8.40;;
21979;SDS011;11154;48.558;9.234;2024-01-15T05:35:03;13.50;;;8.60;;
21979;SDS011;11154;48.558;9.234;2024-01-15T05:37:05;15.18;;;9.30;;
21979;SDS011;11154;48.558;9.234;2024-01-15T05:39:08;13.07;;;8.38;;
21979;SDS011;11154;48.558;9.234;2024-01-15T05:41:10;14.85;;;9.02;;
21979;SDS011;11154;48.558;9.234;2024-01-15T05:43:13;13.48;;;8.27;;
21979;SDS011;11154;48.558;9.234;2024-01-15T05:45:14;11.35;;;7.95;;
21979;SDS011;11154;48.558;9.234;2024-01-15T05:47:15;14.35;;;8.77;;
21979;SDS011;11154;48.558;9.234;2024-01-15T05:49:17;14.25;;;8.43;;
21979;SDS011;11154;48.558;9.234;2024-01-15T05:51:19;13.77;;;8.95;;
21979;SDS011;11154;48.558;9.234;2024-01-15T05:53:21;12.68;;;8.25;;
21979;SDS011;11154;48.558;9.234;2024-01-15T05:55:24;15.15;;;8.85;;
21979;SDS011;11154;48.558;9.234;2024-01-15T05:57:25;15.55;;;9.27;;
21979;SDS011;11154;48.558;9.234;2024-01-15T05:59:28;15.45;;;8.65;;
21979;SDS011;11154;48.558;9.234;2024-01-15T06:01:32;15.50;;;8.50;;
21979;SDS011;11154;48.558;9.234;2024-01-15T06:03:33;13.98;;;7.50;;
21979;SDS011;11154;48.558;9.234;2024-01-15T06:05:35;14.10;;;8.95;;
21979;SDS011;11154;48.558;9.234;2024-01-15T06:07:37;13.02;;;8.38;;
21979;SDS011;11154;48.558;9.234;2024-01-15T06:09:38;13.68;;;8.80;;
21979;SDS011;11154;48.558;9.234;2024-01-15T06:11:42;13.63;;;8.15;;
21979;SDS011;11154;48.558;9.234;2024-01-15T06:13:43;11.80;;;7.90;;
21979;SDS011;11154;48.558;9.234;2024-01-15T06:15:45;12.98;;;8.50;;
21979;SDS011;11154;48.558;9.234;2024-01-15T06:17:47;11.55;;;7.88;;
21979;SDS011;11154;48.558;9.234;2024-01-15T06:19:49;11.77;;;7.85;;
21979;SDS011;11154;48.558;9.234;2024-01-15T06:21:50;13.05;;;8.27;;
21979;SDS011;11154;48.558;9.234;2024-01-15T06:23:51;13.18;;;8.77;;
21979;SDS011;11154;48.558;9.234;2024-01-15T06:25:53;12.45;;;8.30;;
21979;SDS011;11154;48.558;9.234;2024-01-15T06:27:55;10.88;;;7.35;;
21979;SDS011;11154;48.558;9.234;2024-01-15T06:29:57;12.75;;;7.60;;
21979;SDS011;11154;48.558;9.234;2024-01-15T06:31:58;10.65;;;7.38;;
21979;SDS011;11154;48.558;9.234;2024-01-15T06:33:59;13.15;;;7.88;;
21979;SDS011;11154;48.558;9.234;2024-01-15T06:36:01;11.50;;;7.85;;
21979;SDS011;11154;48.558;9.234;2024-01-15T06:38:03;14.05;;;7.80;;
21979;SDS011;11154;48.558;9.234;2024-01-15T06:40:05;11.55;;;8.10;;
21979;SDS011;11154;48.558;9.234;2024-01-15T06:42:08;13.02;;;8.38;;
21979;SDS011;11154;48.558;9.234;2024-01-15T06:44:10;13.80;;;7.78;;
21979;SDS011;11154;48.558;9.234;2024-01-15T06:46:12;12.38;;;7.72;;
21979;SDS011;11154;48.558;9.234;2024-01-15T06:48:13;11.05;;;7.60;;
21979;SDS011;11154;48.558;9.234;2024-01-15T06:50:16;14.77;;;7.95;;
21979;SDS011;11154;48.558;9.234;2024-01-15T06:52:18;11.80;;;7.65;;
21979;SDS011;11154;48.558;9.234;2024-01-15T06:54:19;13.05;;;7.93;;
21979;SDS011;11154;48.558;9.234;2024-01-15T06:56:23;11.30;;;7.47;;
21979;SDS011;11154;48.558;9.234;2024-01-15T06:58:25;11.05;;;7.05;;
21979;SDS011;11154;48.558;9.234;2024-01-15T07:00:28;11.07;;;7.43;;
21979;SDS011;11154;48.558;9.234;2024-01-15T07:02:32;13.48;;;8.02;;
21979;SDS011;11154;48.558;9.234;2024-01-15T07:04:34;10.82;;;7.45;;
21979;SDS011;11154;48.558;9.234;2024-01-15T07:06:36;11.05;;;7.22;;
21979;SDS011;11154;48.558;9.234;2024-01-15T07:08:37;10.68;;;7.05;;
21979;SDS011;11154;48.558;9.234;2024-01-15T07:10:39;10.23;;;7.40;;
21979;SDS011;11154;48.558;9.234;2024-01-15T07:12:41;10.88;;;7.60;;
21979;SDS011;11154;48.558;9.234;2024-01-15T07:14:44;10.65;;;7.45;;
21979;SDS011;11154;48.558;9.234;2024-01-15T07:16:46;11.23;;;7.65;;
21979;SDS011;11154;48.558;9.234;2024-01-15T07:18:47;11.30;;;6.97;;
21979;SDS011;11154;48.558;9.234;2024-01-15T07:20:49;12.50;;;7.25;;
21979;SDS011;11154;48.558;9.234;2024-01-15T07:22:51;12.82;;;7.95;;
21979;SDS011;11154;48.558;9.234;2024-01-15T07:24:52;13.00;;;9.02;;
21979;SDS011;11154;48.558;9.234;2024-01-15T07:26:54;13.10;;;8.73;;
21979;SDS011;11154;48.558;9.234;2024-01-15T07:28:56;11.80;;;7.50;;
21979;SDS011;11154;48.558;9.234;2024-01-15T07:30:58;11.15;;;7.47;;
21979;SDS011;11154;48.558;9.234;2024-01-15T07:33:02;11.15;;;7.05;;
21979;SDS011;11154;48.558;9.234;2024-01-15T07:35:04;13.38;;;7.40;;
21979;SDS011;11154;48.558;9.234;2024-01-15T07:37:05;11.43;;;7.30;;
21979;SDS011;11154;48.558;9.234;2024-01-15T07:39:07;10.48;;;6.75;;
21979;SDS011;11154;48.558;9.234;2024-01-15T07:41:12;11.60;;;7.32;;
21979;SDS011;11154;48.558;9.234;2024-01-15T07:43:14;11.70;;;7.40;;
21979;SDS011;11154;48.558;9.234;2024-01-15T07:45:16;10.05;;;6.40;;
21979;SDS011;11154;48.558;9.234;2024-01-15T07:47:18;10.43;;;7.30;;
21979;SDS011;11154;48.558;9.234;2024-01-15T07:49:21;9.43;;;6.50;;
21979;SDS011;11154;48.558;9.234;2024-01-15T07:51:23;9.57;;;6.03;;
21979;SDS011;11154;48.558;9.234;2024-01-15T07:53:25;9.70;;;6.45;;
21979;SDS011;11154;48.558;9.234;2024-01-15T07:55:28;8.82;;;5.80;;
21979;SDS011;11154;48.558;9.234;2024-01-15T07:57:28;10.27;;;6.35;;
21979;SDS011;11154;48.558;9.234;2024-01-15T07:59:30;10.73;;;6.40;;
21979;SDS011;11154;48.558;9.234;2024-01-15T08:01:31;10.30;;;6.68;;
21979;SDS011;11154;48.558;9.234;2024-01-15T08:03:33;9.48;;;6.53;;
21979;SDS011;11154;48.558;9.234;2024-01-15T08:05:35;10.00;;;6.80;;
21979;SDS011;11154;48.558;9.234;2024-01-15T08:07:36;11.60;;;6.47;;
21979;SDS011;11154;48.558;9.234;2024-01-15T08:09:38;11.45;;;6.00;;
21979;SDS011;11154;48.558;9.234;2024-01-15T08:11:39;10.32;;;6.20;;
21979;SDS011;11154;48.558;9.234;2024-01-15T08:13:42;9.85;;;5.78;;
21979;SDS011;11154;48.558;9.234;2024-01-15T08:15:43;8.43;;;5.82;;
21979;SDS011;11154;48.558;9.234;2024-01-15T08:17:45;11.55;;;8.00;;
21979;SDS011;11154;48.558;9.234;2024-01-15T08:19:46;11.07;;;7.05;;
21979;SDS011;11154;48.558;9.234;2024-01-15T08:21:50;12.30;;;6.20;;
21979;SDS011;11154;48.558;9.234;2024-01-15T08:23:51;11.35;;;6.53;;
21979;SDS011;11154;48.558;9.234;2024-01-15T08:25:53;11.93;;;7.18;;
21979;SDS011;11154;48.558;9.234;2024-01-15T08:27:55;10.40;;;6.78;;
21979;SDS011;11154;48.558;9.234;2024-01-15T08:29:57;9.48;;;5.82;;
21979;SDS011;11154;48.558;9.234;2024-01-15T08:31:59;12.65;;;7.40;;
21979;SDS011;11154;48.558;9.234;2024-01-15T08:34:00;10.93;;;5.93;;
21979;SDS011;11154;48.558;9.234;2024-01-15T08:36:02;10.85;;;6.38;;
21979;SDS011;11154;48.558;9.234;2024-01-15T08:38:07;11.00;;;6.63;;
21979;SDS011;11154;48.558;9.234;2024-01-15T08:40:09;10.80;;;6.25;;
21979;SDS011;11154;48.558;9.234;2024-01-15T08:42:10;11.23;;;6.35;;
21979;SDS011;11154;48.558;9.234;2024-01-15T08:44:12;9.82;;;6.07;;
21979;SDS011;11154;48.558;9.234;2024-01-15T08:46:14;10.73;;;7.03;;
21979;SDS011;11154;48.558;9.234;2024-01-15T08:48:15;10.00;;;6.30;;
21979;SDS011;11154;48.558;9.234;2024-01-15T08:50:17;12.23;;;6.45;;
21979;SDS011;11154;48.558;9.234;2024-01-15T08:52:19;11.55;;;6.22;;
21979;SDS011;11154;48.558;9.234;2024-01-15T08:54:21;8.68;;;5.88;;
21979;SDS011;11154;48.558;9.234;2024-01-15T08:56:23;13.73;;;6.50;;
21979;SDS011;11154;48.558;9.234;2024-01-15T08:58:24;10.15;;;5.53;;
21979;SDS011;11154;48.558;9.234;2024-01-15T09:00:25;8.80;;;5.22;;
21979;SDS011;11154;48.558;9.234;2024-01-15T09:02:27;11.02;;;6.10;;
21979;SDS011;11154;48.558;9.234;2024-01-15T09:04:28;7.88;;;4.82;;
21979;SDS011;11154;48.558;9.234;2024-01-15T09:06:29;11.02;;;6.00;;
21979;SDS011;11154;48.558;9.234;2024-01-15T09:08:34;11.30;;;5.57;;
21979;SDS011;11154;48.558;9.234;2024-01-15T09:10:38;9.13;;;5.32;;
21979;SDS011;11154;48.558;9.234;2024-01-15T09:12:40;8.93;;;5.05;;
21979;SDS011;11154;48.558;9.234;2024-01-15T09:14:42;8.90;;;4.57;;
21979;SDS011;11154;48.558;9.234;2024-01-15T09:16:44;9.00;;;4.90;;
21979;SDS011;11154;48.558;9.234;2024-01-15T09:18:46;6.85;;;4.38;;
21979;SDS011;11154;48.558;9.234;2024-01-15T09:20:50;8.35;;;4.95;;
21979;SDS011;11154;48.558;9.234;2024-01-15T09:22:51;7.22;;;4.57;;
21979;SDS011;11154;48.558;9.234;2024-01-15T09:24:53;11.02;;;5.93;;
21979;SDS011;11154;48.558;9.234;2024-01-15T09:26:57;13.07;;;7.30;;
21979;SDS011;11154;48.558;9.234;2024-01-15T09:28:58;7.03;;;4.32;;
21979;SDS011;11154;48.558;9.234;2024-01-15T09:31:01;7.57;;;4.30;;
21979;SDS011;11154;48.558;9.234;2024-01-15T09:33:02;7.15;;;4.20;;
21979;SDS011;11154;48.558;9.234;2024-01-15T09:35:04;7.22;;;4.07;;
21979;SDS011;11154;48.558;9.234;2024-01-15T09:37:06;7.03;;;3.78;;
21979;SDS011;11154;48.558;9.234;2024-01-15T09:39:08;6.25;;;3.58;;
21979;SDS011;11154;48.558;9.234;2024-01-15T09:41:12;5.57;;;3.10;;
21979;SDS011;11154;48.558;9.234;2024-01-15T09:43:15;7.40;;;3.67;;
21979;SDS011;11154;48.558;9.234;2024-01-15T09:45:18;7.07;;;2.92;;
21979;SDS011;11154;48.558;9.234;2024-01-15T09:47:20;5.25;;;3.03;;
21979;SDS011;11154;48.558;9.234;2024-01-15T09:49:22;5.75;;;3.35;;
21979;SDS011;11154;48.558;9.234;2024-01-15T09:51:24;7.78;;;2.97;;
21979;SDS011;11154;48.558;9.234;2024-01-15T09:53:26;5.65;;;2.80;;
21979;SDS011;11154;48.558;9.234;2024-01-15T09:55:27;4.20;;;2.55;;
21979;SDS011;11154;48.558;9.234;2024-01-15T09:57:31;4.47;;;2.63;;
21979;SDS011;11154;48.558;9.234;2024-01-15T09:59:34;4.50;;;2.53;;
21979;SDS011;11154;48.558;9.234;2024-01-15T10:01:38;4.63;;;2.47;;
21979;SDS011;11154;48.558;9.234;2024-01-15T10:03:41;6.10;;;2.10;;
21979;SDS011;11154;48.558;9.234;2024-01-15T10:05:43;3.90;;;1.95;;
21979;SDS011;11154;48.558;9.234;2024-01-15T10:07:45;2.97;;;1.75;;
21979;SDS011;11154;48.558;9.234;2024-01-15T10:09:50;3.05;;;1.83;;
21979;SDS011;11154;48.558;9.234;2024-01-15T10:11:51;4.20;;;2.10;;
21979;SDS011;11154;48.558;9.234;2024-01-15T10:13:53;3.88;;;2.08;;
21979;SDS011;11154;48.558;9.234;2024-01-15T10:15:58;2.58;;;1.52;;
21979;SDS011;11154;48.558;9.234;2024-01-15T10:18:03;4.85;;;1.70;;
21979;SDS011;11154;48.558;9.234;2024-01-15T10:20:07;2.63;;;1.67;;
21979;SDS011;11154;48.558;9.234;2024-01-15T10:22:10;2.78;;;1.83;;
21979;SDS011;11154;48.558;9.234;2024-01-15T10:24:12;3.30;;;1.77;;
21979;SDS011;11154;48.558;9.234;2024-01-15T10:26:13;4.35;;;1.55;;
21979;SDS011;11154;48.558;9.234;2024-01-15T10:28:15;3.33;;;1.48;;
21979;SDS011;11154;48.558;9.234;2024-01-15T10:30:17;2.08;;;1.48;;
21979;SDS011;11154;48.558;9.234;2024-01-15T10:32:20;2.72;;;1.90;;
21979;SDS011;11154;48.558;9.234;2024-01-15T10:34:24;3.10;;;1.92;;
21979;SDS011;11154;48.558;9.234;2024-01-15T10:36:26;1.90;;;1.35;;
21979;SDS011;11154;48.558;9.234;2024-01-15T10:38:28;4.85;;;1.65;;
21979;SDS011;11154;48.558;9.234;2024-01-15T10:40:29;2.75;;;1.73;;
21979;SDS011;11154;48.558;9.234;2024-01-15T10:42:31;2.47;;;1.50;;
21979;SDS011;11154;48.558;9.234;2024-01-15T10:44:32;3.13;;;1.50;;
21979;SDS011;11154;48.558;9.234;2024-01-15T10:46:34;2.17;;;1.63;;
21979;SDS011;11154;48.558;9.234;2024-01-15T10:48:36;2.22;;;1.52;;
21979;SDS011;11154;48.558;9.234;2024-01-15T10:50:38;2.72;;;1.50;;
21979;SDS011;11154;48.558;9.234;2024-01-15T10:52:41;3.38;;;1.85;;
21979;SDS011;11154;48.558;9.234;2024-01-15T10:54:44;4.60;;;1.85;;
21979;SDS011;11154;48.558;9.234;2024-01-15T10:56:46;3.05;;;1.63;;
21979;SDS011;11154;48.558;9.234;2024-01-15T10:58:48;4.40;;;2.22;;
21979;SDS011;11154;48.558;9.234;2024-01-15T11:00:51;5.00;;;1.77;;
21979;SDS011;11154;48.558;9.234;2024-01-15T11:02:53;2.08;;;1.60;;
21979;SDS011;11154;48.558;9.234;2024-01-15T11:04:58;3.55;;;2.20;;
21979;SDS011;11154;48.558;9.234;2024-01-15T11:07:00;2.85;;;1.80;;
21979;SDS011;11154;48.558;9.234;2024-01-15T11:09:03;2.80;;;1.85;;
21979;SDS011;11154;48.558;9.234;2024-01-15T11:11:06;4.45;;;1.83;;
21979;SDS011;11154;48.558;9.234;2024-01-15T11:13:13;4.22;;;1.85;;
21979;SDS011;11154;48.558;9.234;2024-01-15T11:15:16;2.45;;;1.85;;
21979;SDS011;11154;48.558;9.234;2024-01-15T11:17:20;3.00;;;2.20;;
21979;SDS011;11154;48.558;9.234;2024-01-15T11:19:22;4.68;;;2.00;;
21979;SDS011;11154;48.558;9.234;2024-01-15T11:21:25;4.18;;;2.03;;
21979;SDS011;11154;48.558;9.234;2024-01-15T11:23:41;3.47;;;1.98;;
21979;SDS011;11154;48.558;9.234;2024-01-15T11:25:44;4.22;;;2.55;;
21979;SDS011;11154;48.558;9.234;2024-01-15T11:27:46;3.35;;;2.30;;
21979;SDS011;11154;48.558;9.234;2024-01-15T11:29:47;4.40;;;2.58;;
21979;SDS011;11154;48.558;9.234;2024-01-15T11:32:04;2.78;;;2.20;;
21979;SDS011;11154;48.558;9.234;2024-01-15T11:34:09;3.03;;;1.90;;
21979;SDS011;11154;48.558;9.234;2024-01-15T11:36:11;4.47;;;2.28;;
21979;SDS011;11154;48.558;9.234;2024-01-15T11:38:15;4.50;;;2.50;;
21979;SDS011;11154;48.558;9.234;2024-01-15T11:40:38;2.72;;;2.00;;
21979;SDS011;11154;48.558;9.234;2024-01-15T11:42:42;3.95;;;2.50;;
21979;SDS011;11154;48.558;9.234;2024-01-15T11:44:44;3.30;;;2.35;;
21979;SDS011;11154;48.558;9.234;2024-01-15T11:46:46;3.55;;;2.40;;
21979;SDS011;11154;48.558;9.234;2024-01-15T11:49:00;5.47;;;2.22;;
21979;SDS011;11154;48.558;9.234;2024-01-15T11:51:05;4.65;;;2.55;;
21979;SDS011;11154;48.558;9.234;2024-01-15T11:53:15;3.28;;;2.30;;
21979;SDS011;11154;48.558;9.234;2024-01-15T11:55:19;4.25;;;2.50;;
21979;SDS011;11154;48.558;9.234;2024-01-15T11:57:25;3.55;;;2.13;;
21979;SDS011;11154;48.558;9.234;2024-01-15T11:59:33;3.78;;;2.28;;
21979;SDS011;11154;48.558;9.234;2024-01-15T12:01:35;4.88;;;2.40;;
21979;SDS011;11154;48.558;9.234;2024-01-15T12:03:36;3.80;;;2.60;;
21979;SDS011;11154;48.558;9.234;2024-01-15T12:05:38;3.22;;;2.28;;
21979;SDS011;11154;48.558;9.234;2024-01-15T12:07:42;3.10;;;2.28;;